Santo Domingo de Guzmán, República Dominicana

2:02 PM AST en Agosto 21, 2014 (GMT -0400)
Zona Universitaria | Change Station
CLOSE
Current Station
Estación meteorológica personal
Location: Santo Domingo, NATIONAL DISTRICT
Altura: 52 ft
Estaciones meteorológicas cercanas

Alt 52 ft 18.46 °N, 69.91 °W | Updated 5 seconds ago

Scattered Clouds
Nubes dispersas
91.0 ° F
Sensación térmica 102 ° F
N
3.6
Viento Variable Viento desde Norte
Gusts 4.9 mph

Hoy
Alta -- | Baja -- ° F
--% Posibilidad de precipitaciones
Ayer
Alta -- | Baja -- ° F
Precip. -- pul
6:22 AM 7:02 PM
Creciente menguante, 13% visible
Presión 29.98 pul
Visibilidad 6.2 Millas
Nubes Nubes dispersas 2200 ft
Índice de calor 102 ° F
Punto de rocío 75 ° F
Humedad 60%
Precipitaciones 0.00 pul
Espesor de la nieve No disponible.
UV 14 de una escala de 12
Polen No disponible.
Calidad del aire No disponible.
Flu Activity No disponible.
METAR MDJB 211800Z 06012KT 9999 SCT022 33/25 Q1015

More Conditions Fewer Conditions

Presión 29.98 pul
Visibilidad 6.2 Millas
Nubes Nubes dispersas 2200 ft
Índice de calor 102 ° F
Punto de rocío 75 ° F
Humedad 60%
Precipitaciones 0.00 pul
Espesor de la nieve No disponible.
UV 14 de una escala de 12
Polen No disponible.
Calidad del aire No disponible.
Flu Activity No disponible.
METAR MDJB 211800Z 06012KT 9999 SCT022 33/25 Q1015

More Conditions Fewer Conditions

10-Day Weather Forecast

Almanac

Astronomía

Aug. 21, 2014 Salida Puesta
Hora real 6:22 AM AST 7:02 PM AST
Crepúsculo civil 6:00 AM AST 7:24 PM AST
Crepúsculo náutico 5:33 AM AST 7:50 PM AST
Crepúsculo astronómico 5:07 AM AST 8:17 PM AST
Luna 3:03 AM AST 4:16 PM AST
Horas de luz 13h 24m
Horas de luz
12h 39m
Tomorrow will be 0m 57s shorter.
Creciente menguante, 13% of the Moon is Illuminated
Hoy
Creciente menguante
Ago 25
Nueva
Sep 2
Cuarto creciente
Sep 8
Luna llena
Sep 15
Cuarto menguante

Extremos de hoy

Máximos del país Bajas del país

Community

WunderPhotos

Upload Photos

1,745,987 ¡fotos cargadas!

WunderBlogs® & News

Nearby

Calidad del aire

Not available.

Grosos de nieve

Not available.

Actividad de terremotos

Ciudad Distance Mag. Tiempo y dato
No hay informes recientes de la actividad sísmica.
Magnitud mínima muestra es 2,5.

Temperaturas de aguas costeras

Lugar Temperatura
Sin partes meteorológicos de las estaciones

Estaciones meteorológicas cercanas